sensor_id;sensor_type;location;lat;lon;timestamp;temperature;humidity
21439;DHT22;10880;50.302;18.736;2023-02-28T00:01:07;6.30;50.50
21439;DHT22;10880;50.302;18.736;2023-02-28T00:03:33;6.30;50.20
21439;DHT22;10880;50.302;18.736;2023-02-28T00:06:04;6.30;50.60
21439;DHT22;10880;50.302;18.736;2023-02-28T00:08:32;6.30;50.70
21439;DHT22;10880;50.302;18.736;2023-02-28T00:11:07;6.30;50.20
21439;DHT22;10880;50.302;18.736;2023-02-28T00:13:34;6.30;50.20
21439;DHT22;10880;50.302;18.736;2023-02-28T00:16:05;6.30;50.70
21439;DHT22;10880;50.302;18.736;2023-02-28T00:18:32;6.30;50.70
21439;DHT22;10880;50.302;18.736;2023-02-28T00:20:58;6.30;50.20
21439;DHT22;10880;50.302;18.736;2023-02-28T00:23:26;6.30;50.30
21439;DHT22;10880;50.302;18.736;2023-02-28T00:25:53;6.30;50.60
21439;DHT22;10880;50.302;18.736;2023-02-28T00:28:20;6.30;50.20
21439;DHT22;10880;50.302;18.736;2023-02-28T00:30:47;6.30;50.10
21439;DHT22;10880;50.302;18.736;2023-02-28T00:33:13;6.30;50.40
21439;DHT22;10880;50.302;18.736;2023-02-28T00:35:40;6.30;50.00
21439;DHT22;10880;50.302;18.736;2023-02-28T00:38:09;6.20;50.00
21439;DHT22;10880;50.302;18.736;2023-02-28T00:40:35;6.90;50.30
21439;DHT22;10880;50.302;18.736;2023-02-28T00:43:02;6.30;50.10
21439;DHT22;10880;50.302;18.736;2023-02-28T00:45:30;6.20;51.00
21439;DHT22;10880;50.302;18.736;2023-02-28T00:47:57;6.20;50.10
21439;DHT22;10880;50.302;18.736;2023-02-28T00:50:23;6.20;50.00
21439;DHT22;10880;50.302;18.736;2023-02-28T00:52:50;6.20;49.70
21439;DHT22;10880;50.302;18.736;2023-02-28T00:55:16;6.20;49.90
21439;DHT22;10880;50.302;18.736;2023-02-28T00:57:44;6.20;50.20
21439;DHT22;10880;50.302;18.736;2023-02-28T01:00:11;6.20;49.90
21439;DHT22;10880;50.302;18.736;2023-02-28T01:02:38;6.20;50.20
21439;DHT22;10880;50.302;18.736;2023-02-28T01:05:05;6.20;49.80
21439;DHT22;10880;50.302;18.736;2023-02-28T01:07:31;6.20;50.10
21439;DHT22;10880;50.302;18.736;2023-02-28T01:09:58;6.20;49.90
21439;DHT22;10880;50.302;18.736;2023-02-28T01:12:25;6.30;49.90
21439;DHT22;10880;50.302;18.736;2023-02-28T01:14:51;6.20;49.90
21439;DHT22;10880;50.302;18.736;2023-02-28T01:17:17;6.20;49.80
21439;DHT22;10880;50.302;18.736;2023-02-28T01:19:44;6.20;49.90
21439;DHT22;10880;50.302;18.736;2023-02-28T01:22:10;6.20;49.80
21439;DHT22;10880;50.302;18.736;2023-02-28T01:24:37;6.20;49.90
21439;DHT22;10880;50.302;18.736;2023-02-28T01:27:04;5.30;49.60
21439;DHT22;10880;50.302;18.736;2023-02-28T01:29:30;6.20;49.90
21439;DHT22;10880;50.302;18.736;2023-02-28T01:31:59;6.20;50.00
21439;DHT22;10880;50.302;18.736;2023-02-28T01:34:25;6.20;49.90
21439;DHT22;10880;50.302;18.736;2023-02-28T01:36:52;6.20;49.90
21439;DHT22;10880;50.302;18.736;2023-02-28T01:39:19;6.20;50.00
21439;DHT22;10880;50.302;18.736;2023-02-28T01:41:45;6.20;50.00
21439;DHT22;10880;50.302;18.736;2023-02-28T01:47:16;6.10;50.40
21439;DHT22;10880;50.302;18.736;2023-02-28T01:49:42;6.10;49.80
21439;DHT22;10880;50.302;18.736;2023-02-28T01:52:11;6.10;50.00
21439;DHT22;10880;50.302;18.736;2023-02-28T01:54:48;6.80;50.80
21439;DHT22;10880;50.302;18.736;2023-02-28T01:57:20;6.00;49.90
21439;DHT22;10880;50.302;18.736;2023-02-28T02:00:09;6.00;50.40
21439;DHT22;10880;50.302;18.736;2023-02-28T02:02:48;6.00;50.40
21439;DHT22;10880;50.302;18.736;2023-02-28T02:05:24;6.00;50.40
21439;DHT22;10880;50.302;18.736;2023-02-28T02:07:55;5.90;50.40
21439;DHT22;10880;50.302;18.736;2023-02-28T02:10:50;5.90;50.40
21439;DHT22;10880;50.302;18.736;2023-02-28T02:22:33;5.90;50.50
21439;DHT22;10880;50.302;18.736;2023-02-28T02:31:18;5.90;50.60
21439;DHT22;10880;50.302;18.736;2023-02-28T02:37:04;5.80;50.50
21439;DHT22;10880;50.302;18.736;2023-02-28T02:42:33;5.80;50.20
21439;DHT22;10880;50.302;18.736;2023-02-28T02:45:23;5.80;50.00
21439;DHT22;10880;50.302;18.736;2023-02-28T02:47:55;5.80;50.50
21439;DHT22;10880;50.302;18.736;2023-02-28T02:50:29;5.70;50.30
21439;DHT22;10880;50.302;18.736;2023-02-28T02:53:03;5.70;50.40
21439;DHT22;10880;50.302;18.736;2023-02-28T02:55:36;5.70;50.50
21439;DHT22;10880;50.302;18.736;2023-02-28T02:58:05;5.70;50.50
21439;DHT22;10880;50.302;18.736;2023-02-28T03:00:38;5.70;50.10
21439;DHT22;10880;50.302;18.736;2023-02-28T03:03:07;5.60;50.50
21439;DHT22;10880;50.302;18.736;2023-02-28T03:05:44;5.60;50.50
21439;DHT22;10880;50.302;18.736;2023-02-28T03:08:11;5.60;50.50
21439;DHT22;10880;50.302;18.736;2023-02-28T03:10:41;5.60;50.10
21439;DHT22;10880;50.302;18.736;2023-02-28T03:21:23;5.50;50.70
21439;DHT22;10880;50.302;18.736;2023-02-28T03:26:31;5.50;50.70
21439;DHT22;10880;50.302;18.736;2023-02-28T03:29:12;5.50;50.60
21439;DHT22;10880;50.302;18.736;2023-02-28T03:31:53;5.40;50.70
21439;DHT22;10880;50.302;18.736;2023-02-28T03:34:34;5.40;50.60
21439;DHT22;10880;50.302;18.736;2023-02-28T03:37:09;5.40;50.60
21439;DHT22;10880;50.302;18.736;2023-02-28T03:42:38;5.30;50.70
21439;DHT22;10880;50.302;18.736;2023-02-28T03:45:21;5.30;50.60
21439;DHT22;10880;50.302;18.736;2023-02-28T03:47:53;5.30;50.70
21439;DHT22;10880;50.302;18.736;2023-02-28T03:50:25;5.30;50.70
21439;DHT22;10880;50.302;18.736;2023-02-28T03:53:02;5.30;50.70
21439;DHT22;10880;50.302;18.736;2023-02-28T03:55:37;5.30;50.70
21439;DHT22;10880;50.302;18.736;2023-02-28T04:00:54;5.20;50.70
21439;DHT22;10880;50.302;18.736;2023-02-28T04:03:21;5.20;50.30
21439;DHT22;10880;50.302;18.736;2023-02-28T04:05:54;5.10;50.50
21439;DHT22;10880;50.302;18.736;2023-02-28T04:08:22;5.10;50.80
21439;DHT22;10880;50.302;18.736;2023-02-28T04:11:03;5.10;50.70
21439;DHT22;10880;50.302;18.736;2023-02-28T04:13:34;5.00;50.80
21439;DHT22;10880;50.302;18.736;2023-02-28T04:16:01;5.00;50.50
21439;DHT22;10880;50.302;18.736;2023-02-28T04:18:27;5.00;50.50
21439;DHT22;10880;50.302;18.736;2023-02-28T04:20:54;5.00;50.60
21439;DHT22;10880;50.302;18.736;2023-02-28T04:23:21;4.90;50.50
21439;DHT22;10880;50.302;18.736;2023-02-28T04:28:17;4.90;50.50
21439;DHT22;10880;50.302;18.736;2023-02-28T04:30:46;4.90;50.60
21439;DHT22;10880;50.302;18.736;2023-02-28T04:33:13;4.90;51.00
21439;DHT22;10880;50.302;18.736;2023-02-28T04:35:39;4.80;50.50
21439;DHT22;10880;50.302;18.736;2023-02-28T04:38:06;4.80;51.30
21439;DHT22;10880;50.302;18.736;2023-02-28T04:40:33;4.80;50.70
21439;DHT22;10880;50.302;18.736;2023-02-28T04:43:01;4.80;51.10
21439;DHT22;10880;50.302;18.736;2023-02-28T04:45:29;4.80;50.90
21439;DHT22;10880;50.302;18.736;2023-02-28T04:47:58;4.70;50.80
21439;DHT22;10880;50.302;18.736;2023-02-28T04:50:27;4.70;50.60
21439;DHT22;10880;50.302;18.736;2023-02-28T04:52:54;4.70;51.10
21439;DHT22;10880;50.302;18.736;2023-02-28T04:55:20;4.60;50.60
21439;DHT22;10880;50.302;18.736;2023-02-28T04:57:47;4.60;50.60
21439;DHT22;10880;50.302;18.736;2023-02-28T05:00:14;4.60;50.80
21439;DHT22;10880;50.302;18.736;2023-02-28T05:02:43;4.50;50.90
21439;DHT22;10880;50.302;18.736;2023-02-28T05:05:09;4.50;50.70
21439;DHT22;10880;50.302;18.736;2023-02-28T05:07:38;4.50;51.00
21439;DHT22;10880;50.302;18.736;2023-02-28T05:10:05;4.40;50.80
21439;DHT22;10880;50.302;18.736;2023-02-28T05:12:32;4.40;51.00
21439;DHT22;10880;50.302;18.736;2023-02-28T05:14:58;4.30;51.40
21439;DHT22;10880;50.302;18.736;2023-02-28T05:17:25;4.30;51.10
21439;DHT22;10880;50.302;18.736;2023-02-28T05:19:52;4.30;51.10
21439;DHT22;10880;50.302;18.736;2023-02-28T05:22:19;4.30;50.90
21439;DHT22;10880;50.302;18.736;2023-02-28T05:24:45;4.20;50.80
21439;DHT22;10880;50.302;18.736;2023-02-28T05:27:12;4.20;51.00
21439;DHT22;10880;50.302;18.736;2023-02-28T05:29:38;4.20;51.20
21439;DHT22;10880;50.302;18.736;2023-02-28T05:32:12;4.20;51.10
21439;DHT22;10880;50.302;18.736;2023-02-28T05:34:39;4.10;52.10
21439;DHT22;10880;50.302;18.736;2023-02-28T05:37:11;4.10;51.50
21439;DHT22;10880;50.302;18.736;2023-02-28T05:39:43;4.10;51.60
21439;DHT22;10880;50.302;18.736;2023-02-28T05:42:12;4.10;51.20
21439;DHT22;10880;50.302;18.736;2023-02-28T05:44:39;4.00;51.20
21439;DHT22;10880;50.302;18.736;2023-02-28T05:47:08;4.00;51.20
21439;DHT22;10880;50.302;18.736;2023-02-28T05:49:34;4.00;51.10
21439;DHT22;10880;50.302;18.736;2023-02-28T05:52:01;4.00;51.40
21439;DHT22;10880;50.302;18.736;2023-02-28T05:54:27;4.00;51.30
21439;DHT22;10880;50.302;18.736;2023-02-28T05:56:54;4.00;51.30
21439;DHT22;10880;50.302;18.736;2023-02-28T05:59:20;3.90;51.30
21439;DHT22;10880;50.302;18.736;2023-02-28T06:01:47;4.00;51.50
21439;DHT22;10880;50.302;18.736;2023-02-28T06:04:19;3.90;51.90
21439;DHT22;10880;50.302;18.736;2023-02-28T06:06:49;4.00;52.10
21439;DHT22;10880;50.302;18.736;2023-02-28T06:09:17;4.00;51.70
21439;DHT22;10880;50.302;18.736;2023-02-28T06:11:44;4.00;52.00
21439;DHT22;10880;50.302;18.736;2023-02-28T06:14:18;4.00;51.70
21439;DHT22;10880;50.302;18.736;2023-02-28T06:16:45;4.00;52.20
21439;DHT22;10880;50.302;18.736;2023-02-28T06:19:12;4.00;51.90
21439;DHT22;10880;50.302;18.736;2023-02-28T06:21:38;4.00;51.90
21439;DHT22;10880;50.302;18.736;2023-02-28T06:24:05;4.00;52.00
21439;DHT22;10880;50.302;18.736;2023-02-28T06:26:32;4.00;51.90
21439;DHT22;10880;50.302;18.736;2023-02-28T06:28:58;4.00;51.70
21439;DHT22;10880;50.302;18.736;2023-02-28T06:31:27;4.00;52.00
21439;DHT22;10880;50.302;18.736;2023-02-28T06:33:55;4.00;51.90
21439;DHT22;10880;50.302;18.736;2023-02-28T06:36:22;4.10;52.10
21439;DHT22;10880;50.302;18.736;2023-02-28T06:38:49;4.10;52.00
21439;DHT22;10880;50.302;18.736;2023-02-28T06:41:23;4.10;52.20
21439;DHT22;10880;50.302;18.736;2023-02-28T06:43:50;4.10;52.40
21439;DHT22;10880;50.302;18.736;2023-02-28T06:46:17;4.10;51.50
21439;DHT22;10880;50.302;18.736;2023-02-28T06:48:44;4.20;51.90
21439;DHT22;10880;50.302;18.736;2023-02-28T06:51:17;4.20;52.40
21439;DHT22;10880;50.302;18.736;2023-02-28T06:53:44;4.20;52.40
21439;DHT22;10880;50.302;18.736;2023-02-28T06:56:13;4.30;52.20
21439;DHT22;10880;50.302;18.736;2023-02-28T06:58:40;4.30;52.60
21439;DHT22;10880;50.302;18.736;2023-02-28T07:01:08;4.30;52.30
21439;DHT22;10880;50.302;18.736;2023-02-28T07:03:35;4.30;52.60
21439;DHT22;10880;50.302;18.736;2023-02-28T07:06:02;4.40;52.40
21439;DHT22;10880;50.302;18.736;2023-02-28T07:08:30;4.40;52.50
21439;DHT22;10880;50.302;18.736;2023-02-28T07:10:58;4.50;52.20
21439;DHT22;10880;50.302;18.736;2023-02-28T07:13:25;4.50;52.20
21439;DHT22;10880;50.302;18.736;2023-02-28T07:16:00;4.50;52.20
21439;DHT22;10880;50.302;18.736;2023-02-28T07:18:27;4.60;52.60
21439;DHT22;10880;50.302;18.736;2023-02-28T07:20:53;4.60;52.20
21439;DHT22;10880;50.302;18.736;2023-02-28T07:23:21;4.60;52.10
21439;DHT22;10880;50.302;18.736;2023-02-28T07:25:49;4.70;52.50
21439;DHT22;10880;50.302;18.736;2023-02-28T07:28:15;4.70;52.50
21439;DHT22;10880;50.302;18.736;2023-02-28T07:30:42;4.70;51.90
21439;DHT22;10880;50.302;18.736;2023-02-28T07:33:10;4.80;52.10
21439;DHT22;10880;50.302;18.736;2023-02-28T07:35:40;4.80;52.20
21439;DHT22;10880;50.302;18.736;2023-02-28T07:38:07;4.80;52.30
21439;DHT22;10880;50.302;18.736;2023-02-28T07:40:38;4.90;52.50
21439;DHT22;10880;50.302;18.736;2023-02-28T07:43:05;4.90;52.50
21439;DHT22;10880;50.302;18.736;2023-02-28T07:45:32;4.90;52.10
21439;DHT22;10880;50.302;18.736;2023-02-28T07:48:00;5.00;52.30
21439;DHT22;10880;50.302;18.736;2023-02-28T07:50:29;5.00;51.90
21439;DHT22;10880;50.302;18.736;2023-02-28T07:53:00;5.10;52.20
21439;DHT22;10880;50.302;18.736;2023-02-28T07:55:29;5.20;51.90
21439;DHT22;10880;50.302;18.736;2023-02-28T07:57:57;5.20;52.30
21439;DHT22;10880;50.302;18.736;2023-02-28T08:00:24;5.20;52.20
21439;DHT22;10880;50.302;18.736;2023-02-28T08:02:51;5.20;52.10
21439;DHT22;10880;50.302;18.736;2023-02-28T08:05:17;5.30;51.90
21439;DHT22;10880;50.302;18.736;2023-02-28T08:07:44;5.30;51.60
21439;DHT22;10880;50.302;18.736;2023-02-28T08:10:10;5.30;51.60
21439;DHT22;10880;50.302;18.736;2023-02-28T08:12:37;5.40;51.60
21439;DHT22;10880;50.302;18.736;2023-02-28T08:15:04;5.40;51.60
21439;DHT22;10880;50.302;18.736;2023-02-28T08:17:31;5.50;52.00
21439;DHT22;10880;50.302;18.736;2023-02-28T08:19:57;5.50;51.50
21439;DHT22;10880;50.302;18.736;2023-02-28T08:22:24;5.60;51.60
21439;DHT22;10880;50.302;18.736;2023-02-28T08:24:50;5.60;51.50
21439;DHT22;10880;50.302;18.736;2023-02-28T08:27:17;5.60;51.60
21439;DHT22;10880;50.302;18.736;2023-02-28T08:32:13;5.70;51.60
21439;DHT22;10880;50.302;18.736;2023-02-28T08:34:40;5.80;51.50
21439;DHT22;10880;50.302;18.736;2023-02-28T08:37:06;5.90;51.50
21439;DHT22;10880;50.302;18.736;2023-02-28T08:39:36;5.90;51.30
21439;DHT22;10880;50.302;18.736;2023-02-28T08:42:03;5.90;51.50
21439;DHT22;10880;50.302;18.736;2023-02-28T08:44:32;6.00;51.70
21439;DHT22;10880;50.302;18.736;2023-02-28T08:46:59;6.00;52.10
21439;DHT22;10880;50.302;18.736;2023-02-28T08:49:25;6.10;51.20
21439;DHT22;10880;50.302;18.736;2023-02-28T08:51:52;6.10;51.40
21439;DHT22;10880;50.302;18.736;2023-02-28T08:54:24;6.20;51.50
21439;DHT22;10880;50.302;18.736;2023-02-28T08:56:50;6.40;51.00
21439;DHT22;10880;50.302;18.736;2023-02-28T08:59:17;6.30;50.90
21439;DHT22;10880;50.302;18.736;2023-02-28T09:01:43;6.40;51.00
21439;DHT22;10880;50.302;18.736;2023-02-28T09:04:10;6.40;50.90
21439;DHT22;10880;50.302;18.736;2023-02-28T09:06:37;6.50;50.90
21439;DHT22;10880;50.302;18.736;2023-02-28T09:09:04;6.50;50.90
21439;DHT22;10880;50.302;18.736;2023-02-28T09:11:37;6.60;50.90
21439;DHT22;10880;50.302;18.736;2023-02-28T09:14:04;6.60;50.90
21439;DHT22;10880;50.302;18.736;2023-02-28T09:16:32;6.70;50.60
21439;DHT22;10880;50.302;18.736;2023-02-28T09:18:58;6.70;51.00
21439;DHT22;10880;50.302;18.736;2023-02-28T09:21:27;6.80;50.60
21439;DHT22;10880;50.302;18.736;2023-02-28T09:23:54;6.80;51.00
21439;DHT22;10880;50.302;18.736;2023-02-28T09:26:25;6.90;50.10
21439;DHT22;10880;50.302;18.736;2023-02-28T09:28:55;6.90;50.60
21439;DHT22;10880;50.302;18.736;2023-02-28T09:31:26;7.00;50.20
21439;DHT22;10880;50.302;18.736;2023-02-28T09:33:55;7.00;50.40
21439;DHT22;10880;50.302;18.736;2023-02-28T09:36:23;7.10;50.40
21439;DHT22;10880;50.302;18.736;2023-02-28T09:38:50;7.10;50.40
21439;DHT22;10880;50.302;18.736;2023-02-28T09:41:24;7.20;49.30
21439;DHT22;10880;50.302;18.736;2023-02-28T09:44:01;7.20;49.50
21439;DHT22;10880;50.302;18.736;2023-02-28T09:46:41;7.30;49.50
21439;DHT22;10880;50.302;18.736;2023-02-28T09:49:15;7.30;49.50
21439;DHT22;10880;50.302;18.736;2023-02-28T09:54:32;7.40;49.10
21439;DHT22;10880;50.302;18.736;2023-02-28T09:57:06;7.40;49.50
21439;DHT22;10880;50.302;18.736;2023-02-28T09:59:53;7.40;49.50
21439;DHT22;10880;50.302;18.736;2023-02-28T10:05:16;7.40;49.30
21439;DHT22;10880;50.302;18.736;2023-02-28T10:13:05;7.40;48.60
21439;DHT22;10880;50.302;18.736;2023-02-28T10:15:34;7.40;48.90
21439;DHT22;10880;50.302;18.736;2023-02-28T10:18:04;7.40;48.40
21439;DHT22;10880;50.302;18.736;2023-02-28T10:20:35;7.40;48.90
21439;DHT22;10880;50.302;18.736;2023-02-28T10:23:36;7.40;48.80
21439;DHT22;10880;50.302;18.736;2023-02-28T10:26:14;7.40;49.00
21439;DHT22;10880;50.302;18.736;2023-02-28T10:28:46;7.40;48.80
21439;DHT22;10880;50.302;18.736;2023-02-28T10:31:18;7.40;48.10
21439;DHT22;10880;50.302;18.736;2023-02-28T10:33:45;7.40;48.60
21439;DHT22;10880;50.302;18.736;2023-02-28T10:36:15;7.40;48.10
21439;DHT22;10880;50.302;18.736;2023-02-28T10:38:43;7.40;48.50
21439;DHT22;10880;50.302;18.736;2023-02-28T10:41:28;7.40;48.60
21439;DHT22;10880;50.302;18.736;2023-02-28T10:44:22;7.40;48.50
21439;DHT22;10880;50.302;18.736;2023-02-28T10:46:50;7.40;48.70
21439;DHT22;10880;50.302;18.736;2023-02-28T10:49:21;7.50;48.30
21439;DHT22;10880;50.302;18.736;2023-02-28T10:51:54;7.40;48.70
21439;DHT22;10880;50.302;18.736;2023-02-28T10:54:34;7.50;48.80
21439;DHT22;10880;50.302;18.736;2023-02-28T10:59:39;7.60;48.80
21439;DHT22;10880;50.302;18.736;2023-02-28T11:02:38;7.60;48.20
21439;DHT22;10880;50.302;18.736;2023-02-28T11:05:32;7.80;48.00
21439;DHT22;10880;50.302;18.736;2023-02-28T11:08:10;7.80;48.50
21439;DHT22;10880;50.302;18.736;2023-02-28T11:10:48;7.80;47.40
21439;DHT22;10880;50.302;18.736;2023-02-28T11:13:27;7.80;48.00
21439;DHT22;10880;50.302;18.736;2023-02-28T11:15:57;7.90;47.70
21439;DHT22;10880;50.302;18.736;2023-02-28T11:18:40;7.90;47.70
21439;DHT22;10880;50.302;18.736;2023-02-28T11:21:19;7.90;47.70
21439;DHT22;10880;50.302;18.736;2023-02-28T11:23:49;7.90;47.60
21439;DHT22;10880;50.302;18.736;2023-02-28T11:26:38;7.90;46.70
21439;DHT22;10880;50.302;18.736;2023-02-28T11:29:19;7.90;47.20
21439;DHT22;10880;50.302;18.736;2023-02-28T11:34:29;7.90;47.10
21439;DHT22;10880;50.302;18.736;2023-02-28T11:36:57;7.90;47.20
21439;DHT22;10880;50.302;18.736;2023-02-28T11:39:26;7.90;47.30
21439;DHT22;10880;50.302;18.736;2023-02-28T11:48:14;7.90;47.30
21439;DHT22;10880;50.302;18.736;2023-02-28T11:50:54;7.90;47.30
21439;DHT22;10880;50.302;18.736;2023-02-28T11:58:55;7.90;47.40
21439;DHT22;10880;50.302;18.736;2023-02-28T12:01:45;8.00;47.50
21439;DHT22;10880;50.302;18.736;2023-02-28T12:04:30;7.90;47.40
21439;DHT22;10880;50.302;18.736;2023-02-28T12:26:50;7.80;46.60
21439;DHT22;10880;50.302;18.736;2023-02-28T12:29:33;7.80;46.30
21439;DHT22;10880;50.302;18.736;2023-02-28T12:34:47;7.80;46.40
21439;DHT22;10880;50.302;18.736;2023-02-28T12:37:20;7.80;46.90
21439;DHT22;10880;50.302;18.736;2023-02-28T12:39:55;7.80;46.90
21439;DHT22;10880;50.302;18.736;2023-02-28T12:42:30;7.90;46.40
21439;DHT22;10880;50.302;18.736;2023-02-28T12:45:08;7.80;46.70
21439;DHT22;10880;50.302;18.736;2023-02-28T12:47:39;7.90;46.30
21439;DHT22;10880;50.302;18.736;2023-02-28T12:50:12;7.80;46.80
21439;DHT22;10880;50.302;18.736;2023-02-28T12:53:22;7.90;46.80
21439;DHT22;10880;50.302;18.736;2023-02-28T12:58:47;7.90;46.90
21439;DHT22;10880;50.302;18.736;2023-02-28T13:09:27;7.90;46.60
21439;DHT22;10880;50.302;18.736;2023-02-28T13:11:56;7.90;46.30
21439;DHT22;10880;50.302;18.736;2023-02-28T13:19:58;8.00;46.50
21439;DHT22;10880;50.302;18.736;2023-02-28T13:25:01;8.00;46.60
21439;DHT22;10880;50.302;18.736;2023-02-28T13:27:39;8.00;46.30
21439;DHT22;10880;50.302;18.736;2023-02-28T13:38:42;8.10;46.10
21439;DHT22;10880;50.302;18.736;2023-02-28T13:44:10;8.20;46.40
21439;DHT22;10880;50.302;18.736;2023-02-28T13:49:26;8.20;46.80
21439;DHT22;10880;50.302;18.736;2023-02-28T13:52:18;8.20;46.50
21439;DHT22;10880;50.302;18.736;2023-02-28T14:09:15;8.20;46.30
21439;DHT22;10880;50.302;18.736;2023-02-28T14:11:44;8.20;46.00
21439;DHT22;10880;50.302;18.736;2023-02-28T14:17:14;8.20;46.10
21439;DHT22;10880;50.302;18.736;2023-02-28T14:19:44;8.20;46.00
21439;DHT22;10880;50.302;18.736;2023-02-28T14:22:45;8.20;45.40
21439;DHT22;10880;50.302;18.736;2023-02-28T14:36:32;8.20;45.90
21439;DHT22;10880;50.302;18.736;2023-02-28T14:39:05;8.20;45.70
21439;DHT22;10880;50.302;18.736;2023-02-28T14:41:34;8.20;45.30
21439;DHT22;10880;50.302;18.736;2023-02-28T14:44:17;8.20;45.80
21439;DHT22;10880;50.302;18.736;2023-02-28T14:46:53;8.20;45.40
21439;DHT22;10880;50.302;18.736;2023-02-28T14:49:32;8.20;45.50
21439;DHT22;10880;50.302;18.736;2023-02-28T14:54:37;8.20;45.80
21439;DHT22;10880;50.302;18.736;2023-02-28T14:57:04;8.10;46.00
21439;DHT22;10880;50.302;18.736;2023-02-28T14:59:35;8.20;45.90
21439;DHT22;10880;50.302;18.736;2023-02-28T15:02:21;8.20;45.50
21439;DHT22;10880;50.302;18.736;2023-02-28T15:05:00;8.20;45.90
21439;DHT22;10880;50.302;18.736;2023-02-28T15:07:27;8.20;45.50
21439;DHT22;10880;50.302;18.736;2023-02-28T15:13:00;8.10;46.10
21439;DHT22;10880;50.302;18.736;2023-02-28T15:18:08;8.20;46.30
21439;DHT22;10880;50.302;18.736;2023-02-28T15:20:42;8.10;46.00
21439;DHT22;10880;50.302;18.736;2023-02-28T15:23:10;8.10;46.10
21439;DHT22;10880;50.302;18.736;2023-02-28T15:25:37;8.20;45.90
21439;DHT22;10880;50.302;18.736;2023-02-28T15:28:15;8.10;46.00
21439;DHT22;10880;50.302;18.736;2023-02-28T15:31:27;8.10;45.90
21439;DHT22;10880;50.302;18.736;2023-02-28T15:33:58;8.20;45.60
21439;DHT22;10880;50.302;18.736;2023-02-28T15:36:30;8.10;46.00
21439;DHT22;10880;50.302;18.736;2023-02-28T15:39:00;8.10;46.00
21439;DHT22;10880;50.302;18.736;2023-02-28T15:41:35;8.10;45.60
21439;DHT22;10880;50.302;18.736;2023-02-28T15:47:22;8.10;45.60
21439;DHT22;10880;50.302;18.736;2023-02-28T15:49:53;8.10;46.00
21439;DHT22;10880;50.302;18.736;2023-02-28T15:52:28;8.10;45.90
21439;DHT22;10880;50.302;18.736;2023-02-28T15:54:58;8.10;46.00
21439;DHT22;10880;50.302;18.736;2023-02-28T15:57:29;8.10;45.80
21439;DHT22;10880;50.302;18.736;2023-02-28T16:00:01;8.10;45.60
21439;DHT22;10880;50.302;18.736;2023-02-28T16:02:38;8.10;46.20
21439;DHT22;10880;50.302;18.736;2023-02-28T16:07:40;8.00;45.90
21439;DHT22;10880;50.302;18.736;2023-02-28T16:10:10;8.00;46.00
21439;DHT22;10880;50.302;18.736;2023-02-28T16:12:39;8.00;46.00
21439;DHT22;10880;50.302;18.736;2023-02-28T16:17:43;8.00;45.50
21439;DHT22;10880;50.302;18.736;2023-02-28T16:20:17;7.90;45.70
21439;DHT22;10880;50.302;18.736;2023-02-28T16:22:44;7.90;46.10
21439;DHT22;10880;50.302;18.736;2023-02-28T16:25:20;7.90;45.90
21439;DHT22;10880;50.302;18.736;2023-02-28T16:27:50;7.90;46.20
21439;DHT22;10880;50.302;18.736;2023-02-28T16:30:22;7.90;46.10
21439;DHT22;10880;50.302;18.736;2023-02-28T16:32:49;7.80;46.10
21439;DHT22;10880;50.302;18.736;2023-02-28T16:35:17;7.80;46.20
21439;DHT22;10880;50.302;18.736;2023-02-28T16:37:44;7.80;46.20
21439;DHT22;10880;50.302;18.736;2023-02-28T16:40:15;7.80;46.20
21439;DHT22;10880;50.302;18.736;2023-02-28T16:42:43;7.80;46.30
21439;DHT22;10880;50.302;18.736;2023-02-28T16:45:25;7.70;46.20
21439;DHT22;10880;50.302;18.736;2023-02-28T16:47:56;7.70;46.30
21439;DHT22;10880;50.302;18.736;2023-02-28T16:50:25;7.70;45.80
21439;DHT22;10880;50.302;18.736;2023-02-28T16:52:52;7.70;46.20
21439;DHT22;10880;50.302;18.736;2023-02-28T16:55:22;7.60;46.10
21439;DHT22;10880;50.302;18.736;2023-02-28T16:57:54;7.60;46.30
21439;DHT22;10880;50.302;18.736;2023-02-28T17:00:22;7.50;46.20
21439;DHT22;10880;50.302;18.736;2023-02-28T17:02:50;7.50;46.30
21439;DHT22;10880;50.302;18.736;2023-02-28T17:05:17;7.40;46.30
21439;DHT22;10880;50.302;18.736;2023-02-28T17:07:45;7.40;46.30
21439;DHT22;10880;50.302;18.736;2023-02-28T17:12:46;7.20;45.90
21439;DHT22;10880;50.302;18.736;2023-02-28T17:15:15;7.20;46.30
21439;DHT22;10880;50.302;18.736;2023-02-28T17:17:42;7.10;46.50
21439;DHT22;10880;50.302;18.736;2023-02-28T17:20:17;7.00;46.50
21439;DHT22;10880;50.302;18.736;2023-02-28T17:22:44;7.00;46.60
21439;DHT22;10880;50.302;18.736;2023-02-28T17:25:10;6.90;46.10
21439;DHT22;10880;50.302;18.736;2023-02-28T17:27:37;6.90;46.30
21439;DHT22;10880;50.302;18.736;2023-02-28T17:30:22;6.80;46.40
21439;DHT22;10880;50.302;18.736;2023-02-28T17:32:49;6.70;46.70
21439;DHT22;10880;50.302;18.736;2023-02-28T17:35:16;6.70;46.30
21439;DHT22;10880;50.302;18.736;2023-02-28T17:37:42;6.60;46.40
21439;DHT22;10880;50.302;18.736;2023-02-28T17:40:17;6.60;46.50
21439;DHT22;10880;50.302;18.736;2023-02-28T17:42:46;6.50;46.90
21439;DHT22;10880;50.302;18.736;2023-02-28T17:45:14;6.50;46.70
21439;DHT22;10880;50.302;18.736;2023-02-28T17:47:42;6.50;47.10
21439;DHT22;10880;50.302;18.736;2023-02-28T17:50:21;6.40;47.20
21439;DHT22;10880;50.302;18.736;2023-02-28T17:52:50;6.40;47.30
21439;DHT22;10880;50.302;18.736;2023-02-28T17:55:16;6.30;46.70
21439;DHT22;10880;50.302;18.736;2023-02-28T17:57:45;6.30;47.10
21439;DHT22;10880;50.302;18.736;2023-02-28T18:00:13;6.20;47.30
21439;DHT22;10880;50.302;18.736;2023-02-28T18:02:42;6.20;47.40
21439;DHT22;10880;50.302;18.736;2023-02-28T18:05:09;6.10;47.10
21439;DHT22;10880;50.302;18.736;2023-02-28T18:07:39;6.10;47.30
21439;DHT22;10880;50.302;18.736;2023-02-28T18:10:12;6.00;47.50
21439;DHT22;10880;50.302;18.736;2023-02-28T18:12:41;6.00;47.50
21439;DHT22;10880;50.302;18.736;2023-02-28T18:15:08;6.00;47.20
21439;DHT22;10880;50.302;18.736;2023-02-28T18:17:34;5.90;47.40
21439;DHT22;10880;50.302;18.736;2023-02-28T18:20:01;5.90;47.10
21439;DHT22;10880;50.302;18.736;2023-02-28T18:22:27;5.80;47.30
21439;DHT22;10880;50.302;18.736;2023-02-28T18:24:57;5.80;47.40
21439;DHT22;10880;50.302;18.736;2023-02-28T18:27:24;5.80;48.00
21439;DHT22;10880;50.302;18.736;2023-02-28T18:29:50;5.80;47.40
21439;DHT22;10880;50.302;18.736;2023-02-28T18:32:18;5.70;47.70
21439;DHT22;10880;50.302;18.736;2023-02-28T18:37:12;5.60;47.60
21439;DHT22;10880;50.302;18.736;2023-02-28T18:39:41;5.60;47.60
21439;DHT22;10880;50.302;18.736;2023-02-28T18:42:08;5.60;47.60
21439;DHT22;10880;50.302;18.736;2023-02-28T18:44:36;5.60;47.70
21439;DHT22;10880;50.302;18.736;2023-02-28T18:47:05;5.50;47.80
21439;DHT22;10880;50.302;18.736;2023-02-28T18:49:32;5.50;48.00
21439;DHT22;10880;50.302;18.736;2023-02-28T18:52:03;5.50;48.10